sensor_id;sensor_type;location;lat;lon;timestamp;P1;durP1;ratioP1;P2;durP2;ratioP2
22191;SDS011;11261;52.456;10.850;2022-11-15T00:01:14;22.33;;;10.43;;
22191;SDS011;11261;52.456;10.850;2022-11-15T00:03:44;18.88;;;10.10;;
22191;SDS011;11261;52.456;10.850;2022-11-15T00:06:13;17.35;;;9.80;;
22191;SDS011;11261;52.456;10.850;2022-11-15T00:08:41;19.23;;;9.00;;
22191;SDS011;11261;52.456;10.850;2022-11-15T00:11:09;15.02;;;8.85;;
22191;SDS011;11261;52.456;10.850;2022-11-15T00:13:40;15.80;;;8.88;;
22191;SDS011;11261;52.456;10.850;2022-11-15T00:16:08;20.73;;;9.68;;
22191;SDS011;11261;52.456;10.850;2022-11-15T00:18:37;18.20;;;8.90;;
22191;SDS011;11261;52.456;10.850;2022-11-15T00:21:09;17.52;;;10.00;;
22191;SDS011;11261;52.456;10.850;2022-11-15T00:23:38;17.48;;;9.48;;
22191;SDS011;11261;52.456;10.850;2022-11-15T00:26:08;19.05;;;8.88;;
22191;SDS011;11261;52.456;10.850;2022-11-15T00:28:40;17.98;;;8.77;;
22191;SDS011;11261;52.456;10.850;2022-11-15T00:31:09;14.02;;;8.10;;
22191;SDS011;11261;52.456;10.850;2022-11-15T00:33:39;19.30;;;9.27;;
22191;SDS011;11261;52.456;10.850;2022-11-15T00:36:09;21.38;;;10.82;;
22191;SDS011;11261;52.456;10.850;2022-11-15T00:38:38;17.88;;;10.60;;
22191;SDS011;11261;52.456;10.850;2022-11-15T00:41:07;19.00;;;10.10;;
22191;SDS011;11261;52.456;10.850;2022-11-15T00:43:35;17.73;;;9.43;;
22191;SDS011;11261;52.456;10.850;2022-11-15T00:46:08;14.60;;;8.10;;
22191;SDS011;11261;52.456;10.850;2022-11-15T00:48:36;19.17;;;8.45;;
22191;SDS011;11261;52.456;10.850;2022-11-15T00:51:04;15.60;;;9.18;;
22191;SDS011;11261;52.456;10.850;2022-11-15T00:53:32;17.58;;;9.70;;
22191;SDS011;11261;52.456;10.850;2022-11-15T00:56:01;15.57;;;8.57;;
22191;SDS011;11261;52.456;10.850;2022-11-15T00:58:29;17.75;;;9.07;;
22191;SDS011;11261;52.456;10.850;2022-11-15T01:01:04;15.43;;;8.52;;
22191;SDS011;11261;52.456;10.850;2022-11-15T01:03:36;20.05;;;10.05;;
22191;SDS011;11261;52.456;10.850;2022-11-15T01:06:05;20.40;;;10.13;;
22191;SDS011;11261;52.456;10.850;2022-11-15T01:08:34;18.35;;;9.85;;
22191;SDS011;11261;52.456;10.850;2022-11-15T01:11:03;19.17;;;10.65;;
22191;SDS011;11261;52.456;10.850;2022-11-15T01:13:32;20.00;;;10.70;;
22191;SDS011;11261;52.456;10.850;2022-11-15T01:16:05;16.95;;;9.48;;
22191;SDS011;11261;52.456;10.850;2022-11-15T01:18:36;20.23;;;10.85;;
22191;SDS011;11261;52.456;10.850;2022-11-15T01:21:06;18.50;;;9.43;;
22191;SDS011;11261;52.456;10.850;2022-11-15T01:23:35;18.00;;;9.75;;
22191;SDS011;11261;52.456;10.850;2022-11-15T01:26:04;16.58;;;9.02;;
22191;SDS011;11261;52.456;10.850;2022-11-15T01:28:34;18.00;;;10.13;;
22191;SDS011;11261;52.456;10.850;2022-11-15T01:31:04;14.73;;;8.93;;
22191;SDS011;11261;52.456;10.850;2022-11-15T01:33:34;18.23;;;9.45;;
22191;SDS011;11261;52.456;10.850;2022-11-15T01:36:04;20.05;;;10.10;;
22191;SDS011;11261;52.456;10.850;2022-11-15T01:38:33;17.27;;;8.90;;
22191;SDS011;11261;52.456;10.850;2022-11-15T01:41:02;17.83;;;9.38;;
22191;SDS011;11261;52.456;10.850;2022-11-15T01:43:31;16.15;;;9.15;;
22191;SDS011;11261;52.456;10.850;2022-11-15T01:46:00;18.13;;;9.98;;
22191;SDS011;11261;52.456;10.850;2022-11-15T01:48:31;16.98;;;9.23;;
22191;SDS011;11261;52.456;10.850;2022-11-15T01:51:04;18.27;;;9.13;;
22191;SDS011;11261;52.456;10.850;2022-11-15T01:53:36;20.60;;;9.88;;
22191;SDS011;11261;52.456;10.850;2022-11-15T01:56:08;18.88;;;10.02;;
22191;SDS011;11261;52.456;10.850;2022-11-15T01:58:40;19.02;;;10.00;;
22191;SDS011;11261;52.456;10.850;2022-11-15T02:01:10;18.35;;;8.18;;
22191;SDS011;11261;52.456;10.850;2022-11-15T02:03:41;18.25;;;9.10;;
22191;SDS011;11261;52.456;10.850;2022-11-15T02:06:16;19.45;;;9.57;;
22191;SDS011;11261;52.456;10.850;2022-11-15T02:08:45;16.25;;;8.88;;
22191;SDS011;11261;52.456;10.850;2022-11-15T02:11:14;20.85;;;10.18;;
22191;SDS011;11261;52.456;10.850;2022-11-15T02:13:42;17.05;;;8.80;;
22191;SDS011;11261;52.456;10.850;2022-11-15T02:16:13;16.05;;;8.13;;
22191;SDS011;11261;52.456;10.850;2022-11-15T02:18:48;15.98;;;8.48;;
22191;SDS011;11261;52.456;10.850;2022-11-15T02:21:26;17.90;;;8.68;;
22191;SDS011;11261;52.456;10.850;2022-11-15T02:24:16;15.40;;;8.48;;
22191;SDS011;11261;52.456;10.850;2022-11-15T02:30:23;17.80;;;9.05;;
22191;SDS011;11261;52.456;10.850;2022-11-15T02:32:57;19.58;;;9.15;;
22191;SDS011;11261;52.456;10.850;2022-11-15T02:35:29;15.65;;;7.90;;
22191;SDS011;11261;52.456;10.850;2022-11-15T02:38:06;15.90;;;9.02;;
22191;SDS011;11261;52.456;10.850;2022-11-15T02:40:42;17.70;;;8.82;;
22191;SDS011;11261;52.456;10.850;2022-11-15T02:43:18;17.92;;;8.85;;
22191;SDS011;11261;52.456;10.850;2022-11-15T02:46:12;16.42;;;9.48;;
22191;SDS011;11261;52.456;10.850;2022-11-15T02:48:46;15.15;;;9.10;;
22191;SDS011;11261;52.456;10.850;2022-11-15T02:51:15;17.70;;;10.05;;
22191;SDS011;11261;52.456;10.850;2022-11-15T02:53:44;16.80;;;7.85;;
22191;SDS011;11261;52.456;10.850;2022-11-15T02:56:12;19.23;;;9.77;;
22191;SDS011;11261;52.456;10.850;2022-11-15T03:01:41;19.17;;;8.70;;
22191;SDS011;11261;52.456;10.850;2022-11-15T03:04:21;16.48;;;9.35;;
22191;SDS011;11261;52.456;10.850;2022-11-15T03:06:58;16.67;;;8.55;;
22191;SDS011;11261;52.456;10.850;2022-11-15T03:09:31;16.67;;;8.40;;
22191;SDS011;11261;52.456;10.850;2022-11-15T03:12:04;17.50;;;8.52;;
22191;SDS011;11261;52.456;10.850;2022-11-15T03:14:40;17.23;;;8.68;;
22191;SDS011;11261;52.456;10.850;2022-11-15T03:17:15;14.60;;;7.53;;
22191;SDS011;11261;52.456;10.850;2022-11-15T03:19:49;14.48;;;7.88;;
22191;SDS011;11261;52.456;10.850;2022-11-15T03:22:21;16.60;;;7.97;;
22191;SDS011;11261;52.456;10.850;2022-11-15T03:24:54;14.48;;;7.88;;
22191;SDS011;11261;52.456;10.850;2022-11-15T03:27:26;18.55;;;8.90;;
22191;SDS011;11261;52.456;10.850;2022-11-15T03:30:00;15.48;;;8.07;;
22191;SDS011;11261;52.456;10.850;2022-11-15T03:32:34;16.30;;;8.20;;
22191;SDS011;11261;52.456;10.850;2022-11-15T03:35:06;14.07;;;7.82;;
22191;SDS011;11261;52.456;10.850;2022-11-15T03:37:39;16.88;;;9.93;;
22191;SDS011;11261;52.456;10.850;2022-11-15T03:40:11;16.83;;;9.13;;
22191;SDS011;11261;52.456;10.850;2022-11-15T03:42:42;14.60;;;7.78;;
22191;SDS011;11261;52.456;10.850;2022-11-15T03:45:15;16.60;;;8.13;;
22191;SDS011;11261;52.456;10.850;2022-11-15T03:47:48;15.35;;;8.38;;
22191;SDS011;11261;52.456;10.850;2022-11-15T03:50:20;14.18;;;7.65;;
22191;SDS011;11261;52.456;10.850;2022-11-15T03:52:50;16.73;;;8.30;;
22191;SDS011;11261;52.456;10.850;2022-11-15T03:55:21;15.88;;;8.50;;
22191;SDS011;11261;52.456;10.850;2022-11-15T03:57:50;15.27;;;7.97;;
22191;SDS011;11261;52.456;10.850;2022-11-15T04:00:21;16.13;;;8.68;;
22191;SDS011;11261;52.456;10.850;2022-11-15T04:02:51;17.08;;;8.90;;
22191;SDS011;11261;52.456;10.850;2022-11-15T04:05:19;17.65;;;8.52;;
22191;SDS011;11261;52.456;10.850;2022-11-15T04:07:47;19.15;;;8.43;;
22191;SDS011;11261;52.456;10.850;2022-11-15T04:10:15;18.75;;;8.95;;
22191;SDS011;11261;52.456;10.850;2022-11-15T04:12:44;17.25;;;8.45;;
22191;SDS011;11261;52.456;10.850;2022-11-15T04:15:14;15.73;;;7.60;;
22191;SDS011;11261;52.456;10.850;2022-11-15T04:17:44;16.08;;;8.07;;
22191;SDS011;11261;52.456;10.850;2022-11-15T04:20:15;15.93;;;8.30;;
22191;SDS011;11261;52.456;10.850;2022-11-15T04:23:03;15.43;;;8.13;;
22191;SDS011;11261;52.456;10.850;2022-11-15T04:25:49;19.30;;;8.55;;
22191;SDS011;11261;52.456;10.850;2022-11-15T04:28:19;17.73;;;7.90;;
22191;SDS011;11261;52.456;10.850;2022-11-15T04:30:48;18.85;;;8.60;;
22191;SDS011;11261;52.456;10.850;2022-11-15T04:33:16;13.48;;;6.90;;
22191;SDS011;11261;52.456;10.850;2022-11-15T04:35:45;13.20;;;6.32;;
22191;SDS011;11261;52.456;10.850;2022-11-15T04:38:33;15.38;;;7.35;;
22191;SDS011;11261;52.456;10.850;2022-11-15T04:41:01;16.02;;;7.30;;
22191;SDS011;11261;52.456;10.850;2022-11-15T04:43:30;18.38;;;7.65;;
22191;SDS011;11261;52.456;10.850;2022-11-15T04:45:59;15.55;;;8.10;;
22191;SDS011;11261;52.456;10.850;2022-11-15T04:48:27;16.23;;;8.40;;
22191;SDS011;11261;52.456;10.850;2022-11-15T04:50:57;16.65;;;8.18;;
22191;SDS011;11261;52.456;10.850;2022-11-15T04:53:25;16.98;;;8.13;;
22191;SDS011;11261;52.456;10.850;2022-11-15T04:55:53;15.02;;;7.85;;
22191;SDS011;11261;52.456;10.850;2022-11-15T04:58:21;15.60;;;7.18;;
22191;SDS011;11261;52.456;10.850;2022-11-15T05:00:49;13.13;;;6.68;;
22191;SDS011;11261;52.456;10.850;2022-11-15T05:03:18;12.40;;;5.97;;
22191;SDS011;11261;52.456;10.850;2022-11-15T05:06:05;13.60;;;6.60;;
22191;SDS011;11261;52.456;10.850;2022-11-15T05:08:33;13.63;;;7.03;;
22191;SDS011;11261;52.456;10.850;2022-11-15T05:11:01;17.23;;;8.00;;
22191;SDS011;11261;52.456;10.850;2022-11-15T05:13:30;13.43;;;7.05;;
22191;SDS011;11261;52.456;10.850;2022-11-15T05:15:58;13.32;;;7.60;;
22191;SDS011;11261;52.456;10.850;2022-11-15T05:18:27;18.75;;;8.35;;
22191;SDS011;11261;52.456;10.850;2022-11-15T05:20:55;14.20;;;7.57;;
22191;SDS011;11261;52.456;10.850;2022-11-15T05:23:25;13.95;;;7.28;;
22191;SDS011;11261;52.456;10.850;2022-11-15T05:25:53;10.82;;;6.10;;
22191;SDS011;11261;52.456;10.850;2022-11-15T05:28:21;11.98;;;6.63;;
22191;SDS011;11261;52.456;10.850;2022-11-15T05:30:49;13.43;;;7.22;;
22191;SDS011;11261;52.456;10.850;2022-11-15T05:33:17;12.30;;;6.65;;
22191;SDS011;11261;52.456;10.850;2022-11-15T05:35:46;13.73;;;6.90;;
22191;SDS011;11261;52.456;10.850;2022-11-15T05:38:17;14.15;;;7.28;;
22191;SDS011;11261;52.456;10.850;2022-11-15T05:40:47;12.32;;;6.55;;
22191;SDS011;11261;52.456;10.850;2022-11-15T05:43:15;16.67;;;7.03;;
22191;SDS011;11261;52.456;10.850;2022-11-15T05:45:44;9.85;;;5.75;;
22191;SDS011;11261;52.456;10.850;2022-11-15T05:48:12;9.32;;;5.68;;
22191;SDS011;11261;52.456;10.850;2022-11-15T05:50:41;9.23;;;5.25;;
22191;SDS011;11261;52.456;10.850;2022-11-15T05:53:14;11.63;;;5.63;;
22191;SDS011;11261;52.456;10.850;2022-11-15T05:55:44;14.25;;;5.80;;
22191;SDS011;11261;52.456;10.850;2022-11-15T05:58:14;11.50;;;6.30;;
22191;SDS011;11261;52.456;10.850;2022-11-15T06:00:43;11.48;;;6.40;;
22191;SDS011;11261;52.456;10.850;2022-11-15T06:03:11;13.88;;;7.55;;
22191;SDS011;11261;52.456;10.850;2022-11-15T06:05:40;10.98;;;6.38;;
22191;SDS011;11261;52.456;10.850;2022-11-15T06:08:08;10.60;;;6.63;;
22191;SDS011;11261;52.456;10.850;2022-11-15T06:10:36;13.20;;;6.80;;
22191;SDS011;11261;52.456;10.850;2022-11-15T06:13:05;15.45;;;7.15;;
22191;SDS011;11261;52.456;10.850;2022-11-15T06:15:34;15.50;;;6.70;;
22191;SDS011;11261;52.456;10.850;2022-11-15T06:18:03;13.93;;;7.65;;
22191;SDS011;11261;52.456;10.850;2022-11-15T06:20:31;11.15;;;6.25;;
22191;SDS011;11261;52.456;10.850;2022-11-15T06:22:59;12.63;;;6.45;;
22191;SDS011;11261;52.456;10.850;2022-11-15T06:25:29;12.63;;;7.18;;
22191;SDS011;11261;52.456;10.850;2022-11-15T06:27:58;13.48;;;6.75;;
22191;SDS011;11261;52.456;10.850;2022-11-15T06:30:26;8.90;;;5.60;;
22191;SDS011;11261;52.456;10.850;2022-11-15T06:32:59;13.20;;;6.60;;
22191;SDS011;11261;52.456;10.850;2022-11-15T06:35:29;15.25;;;6.50;;
22191;SDS011;11261;52.456;10.850;2022-11-15T06:38:01;11.27;;;5.68;;
22191;SDS011;11261;52.456;10.850;2022-11-15T06:40:32;14.35;;;5.93;;
22191;SDS011;11261;52.456;10.850;2022-11-15T06:43:01;12.93;;;5.88;;
22191;SDS011;11261;52.456;10.850;2022-11-15T06:45:30;13.00;;;7.22;;
22191;SDS011;11261;52.456;10.850;2022-11-15T06:48:00;14.07;;;5.95;;
22191;SDS011;11261;52.456;10.850;2022-11-15T06:50:28;10.95;;;5.97;;
22191;SDS011;11261;52.456;10.850;2022-11-15T06:53:00;14.52;;;7.63;;
22191;SDS011;11261;52.456;10.850;2022-11-15T06:55:29;15.43;;;8.90;;
22191;SDS011;11261;52.456;10.850;2022-11-15T06:57:57;17.63;;;9.65;;
22191;SDS011;11261;52.456;10.850;2022-11-15T07:00:25;16.90;;;8.50;;
22191;SDS011;11261;52.456;10.850;2022-11-15T07:02:54;14.60;;;8.38;;
22191;SDS011;11261;52.456;10.850;2022-11-15T07:05:23;19.63;;;9.68;;
22191;SDS011;11261;52.456;10.850;2022-11-15T07:07:51;15.73;;;9.40;;
22191;SDS011;11261;52.456;10.850;2022-11-15T07:10:20;19.60;;;9.95;;
22191;SDS011;11261;52.456;10.850;2022-11-15T07:12:51;11.95;;;7.75;;
22191;SDS011;11261;52.456;10.850;2022-11-15T07:15:20;18.52;;;8.82;;
22191;SDS011;11261;52.456;10.850;2022-11-15T07:17:50;21.88;;;10.93;;
22191;SDS011;11261;52.456;10.850;2022-11-15T07:20:18;17.95;;;8.70;;
22191;SDS011;11261;52.456;10.850;2022-11-15T07:22:48;14.57;;;8.95;;
22191;SDS011;11261;52.456;10.850;2022-11-15T07:25:16;17.90;;;9.70;;
22191;SDS011;11261;52.456;10.850;2022-11-15T07:27:44;27.42;;;11.75;;
22191;SDS011;11261;52.456;10.850;2022-11-15T07:30:22;20.00;;;11.40;;
22191;SDS011;11261;52.456;10.850;2022-11-15T07:32:51;28.33;;;11.48;;
22191;SDS011;11261;52.456;10.850;2022-11-15T07:35:21;20.30;;;11.15;;
22191;SDS011;11261;52.456;10.850;2022-11-15T07:37:54;30.25;;;11.93;;
22191;SDS011;11261;52.456;10.850;2022-11-15T07:40:23;28.60;;;12.98;;
22191;SDS011;11261;52.456;10.850;2022-11-15T07:42:52;22.85;;;11.25;;
22191;SDS011;11261;52.456;10.850;2022-11-15T07:45:20;20.85;;;10.65;;
22191;SDS011;11261;52.456;10.850;2022-11-15T07:47:49;24.63;;;10.30;;
22191;SDS011;11261;52.456;10.850;2022-11-15T07:50:17;26.45;;;10.85;;
22191;SDS011;11261;52.456;10.850;2022-11-15T07:52:46;24.85;;;10.70;;
22191;SDS011;11261;52.456;10.850;2022-11-15T07:55:15;23.98;;;9.98;;
22191;SDS011;11261;52.456;10.850;2022-11-15T07:57:43;16.73;;;9.27;;
22191;SDS011;11261;52.456;10.850;2022-11-15T08:00:12;14.82;;;8.82;;
22191;SDS011;11261;52.456;10.850;2022-11-15T08:02:41;11.65;;;6.93;;
22191;SDS011;11261;52.456;10.850;2022-11-15T08:05:10;12.98;;;8.07;;
22191;SDS011;11261;52.456;10.850;2022-11-15T08:07:38;12.20;;;7.60;;
22191;SDS011;11261;52.456;10.850;2022-11-15T08:10:07;12.93;;;7.45;;
22191;SDS011;11261;52.456;10.850;2022-11-15T08:12:39;12.80;;;7.97;;
22191;SDS011;11261;52.456;10.850;2022-11-15T08:15:07;12.85;;;7.78;;
22191;SDS011;11261;52.456;10.850;2022-11-15T08:17:36;14.77;;;7.60;;
22191;SDS011;11261;52.456;10.850;2022-11-15T08:20:04;12.98;;;7.43;;
22191;SDS011;11261;52.456;10.850;2022-11-15T08:22:33;11.73;;;6.68;;
22191;SDS011;11261;52.456;10.850;2022-11-15T08:25:01;10.85;;;7.05;;
22191;SDS011;11261;52.456;10.850;2022-11-15T08:27:29;14.48;;;7.22;;
22191;SDS011;11261;52.456;10.850;2022-11-15T08:29:59;11.95;;;7.32;;
22191;SDS011;11261;52.456;10.850;2022-11-15T08:32:27;11.07;;;6.53;;
22191;SDS011;11261;52.456;10.850;2022-11-15T08:34:56;10.15;;;7.55;;
22191;SDS011;11261;52.456;10.850;2022-11-15T08:37:24;10.73;;;6.47;;
22191;SDS011;11261;52.456;10.850;2022-11-15T08:39:52;11.57;;;6.50;;
22191;SDS011;11261;52.456;10.850;2022-11-15T08:42:20;11.52;;;6.32;;
22191;SDS011;11261;52.456;10.850;2022-11-15T08:44:48;10.85;;;6.55;;
22191;SDS011;11261;52.456;10.850;2022-11-15T08:47:18;11.43;;;6.63;;
22191;SDS011;11261;52.456;10.850;2022-11-15T08:49:46;10.77;;;6.20;;
22191;SDS011;11261;52.456;10.850;2022-11-15T08:52:14;11.60;;;5.60;;
22191;SDS011;11261;52.456;10.850;2022-11-15T08:54:42;8.38;;;4.95;;
22191;SDS011;11261;52.456;10.850;2022-11-15T08:57:10;9.18;;;5.80;;
22191;SDS011;11261;52.456;10.850;2022-11-15T08:59:39;7.60;;;4.95;;
22191;SDS011;11261;52.456;10.850;2022-11-15T09:02:10;10.48;;;5.45;;
22191;SDS011;11261;52.456;10.850;2022-11-15T09:04:42;7.65;;;5.43;;
22191;SDS011;11261;52.456;10.850;2022-11-15T09:07:10;8.07;;;4.70;;
22191;SDS011;11261;52.456;10.850;2022-11-15T09:09:39;7.85;;;4.60;;
22191;SDS011;11261;52.456;10.850;2022-11-15T09:12:07;8.70;;;5.45;;
22191;SDS011;11261;52.456;10.850;2022-11-15T09:14:35;7.93;;;5.47;;
22191;SDS011;11261;52.456;10.850;2022-11-15T09:17:06;7.80;;;4.95;;
22191;SDS011;11261;52.456;10.850;2022-11-15T09:19:35;7.60;;;4.72;;
22191;SDS011;11261;52.456;10.850;2022-11-15T09:22:06;10.40;;;5.50;;
22191;SDS011;11261;52.456;10.850;2022-11-15T09:24:35;9.25;;;5.50;;
22191;SDS011;11261;52.456;10.850;2022-11-15T09:27:03;10.40;;;6.30;;
22191;SDS011;11261;52.456;10.850;2022-11-15T09:29:31;12.00;;;5.82;;
22191;SDS011;11261;52.456;10.850;2022-11-15T09:32:00;19.48;;;10.55;;
22191;SDS011;11261;52.456;10.850;2022-11-15T09:34:28;10.25;;;5.57;;
22191;SDS011;11261;52.456;10.850;2022-11-15T09:36:56;11.07;;;6.00;;
22191;SDS011;11261;52.456;10.850;2022-11-15T09:39:25;12.55;;;8.38;;
22191;SDS011;11261;52.456;10.850;2022-11-15T09:41:58;8.82;;;5.82;;
22191;SDS011;11261;52.456;10.850;2022-11-15T09:44:40;8.07;;;4.70;;
22191;SDS011;11261;52.456;10.850;2022-11-15T09:47:29;9.13;;;5.70;;
22191;SDS011;11261;52.456;10.850;2022-11-15T09:50:17;6.90;;;4.90;;
22191;SDS011;11261;52.456;10.850;2022-11-15T09:52:55;7.60;;;5.13;;
22191;SDS011;11261;52.456;10.850;2022-11-15T09:55:28;9.88;;;5.25;;
22191;SDS011;11261;52.456;10.850;2022-11-15T09:58:03;8.95;;;5.88;;
22191;SDS011;11261;52.456;10.850;2022-11-15T10:00:38;11.18;;;6.07;;
22191;SDS011;11261;52.456;10.850;2022-11-15T10:03:13;9.23;;;5.28;;
22191;SDS011;11261;52.456;10.850;2022-11-15T10:05:44;7.22;;;4.18;;
22191;SDS011;11261;52.456;10.850;2022-11-15T10:08:25;6.18;;;4.30;;
22191;SDS011;11261;52.456;10.850;2022-11-15T10:11:03;8.15;;;4.88;;
22191;SDS011;11261;52.456;10.850;2022-11-15T10:13:54;8.15;;;4.40;;
22191;SDS011;11261;52.456;10.850;2022-11-15T10:16:28;8.23;;;4.75;;
22191;SDS011;11261;52.456;10.850;2022-11-15T10:19:20;7.35;;;4.18;;
22191;SDS011;11261;52.456;10.850;2022-11-15T10:22:00;8.07;;;5.20;;
22191;SDS011;11261;52.456;10.850;2022-11-15T10:24:41;6.75;;;4.18;;
22191;SDS011;11261;52.456;10.850;2022-11-15T10:27:14;5.82;;;4.07;;
22191;SDS011;11261;52.456;10.850;2022-11-15T10:29:44;6.72;;;4.20;;
22191;SDS011;11261;52.456;10.850;2022-11-15T10:32:13;6.30;;;3.65;;
22191;SDS011;11261;52.456;10.850;2022-11-15T10:34:43;5.32;;;3.65;;
22191;SDS011;11261;52.456;10.850;2022-11-15T10:37:11;6.85;;;3.78;;
22191;SDS011;11261;52.456;10.850;2022-11-15T10:39:40;4.70;;;3.65;;
22191;SDS011;11261;52.456;10.850;2022-11-15T10:42:16;6.65;;;3.83;;
22191;SDS011;11261;52.456;10.850;2022-11-15T10:44:45;5.47;;;3.35;;
22191;SDS011;11261;52.456;10.850;2022-11-15T10:47:21;5.60;;;3.30;;
22191;SDS011;11261;52.456;10.850;2022-11-15T10:49:58;4.13;;;3.20;;
22191;SDS011;11261;52.456;10.850;2022-11-15T10:52:31;5.30;;;3.30;;
22191;SDS011;11261;52.456;10.850;2022-11-15T10:55:03;6.32;;;3.13;;
22191;SDS011;11261;52.456;10.850;2022-11-15T10:57:50;4.97;;;3.58;;
22191;SDS011;11261;52.456;10.850;2022-11-15T11:00:36;6.50;;;3.55;;
22191;SDS011;11261;52.456;10.850;2022-11-15T11:03:06;6.35;;;3.63;;
22191;SDS011;11261;52.456;10.850;2022-11-15T11:06:03;5.05;;;3.47;;
22191;SDS011;11261;52.456;10.850;2022-11-15T11:08:32;7.95;;;3.20;;
22191;SDS011;11261;52.456;10.850;2022-11-15T11:11:01;3.83;;;3.03;;
22191;SDS011;11261;52.456;10.850;2022-11-15T11:13:33;4.78;;;2.90;;
22191;SDS011;11261;52.456;10.850;2022-11-15T11:19:17;4.72;;;3.25;;
22191;SDS011;11261;52.456;10.850;2022-11-15T11:22:01;6.47;;;3.17;;
22191;SDS011;11261;52.456;10.850;2022-11-15T11:24:40;5.53;;;2.90;;
22191;SDS011;11261;52.456;10.850;2022-11-15T11:27:15;4.13;;;2.95;;
22191;SDS011;11261;52.456;10.850;2022-11-15T11:29:54;4.93;;;3.15;;
22191;SDS011;11261;52.456;10.850;2022-11-15T11:32:34;4.90;;;3.25;;
22191;SDS011;11261;52.456;10.850;2022-11-15T11:35:22;4.53;;;2.83;;
22191;SDS011;11261;52.456;10.850;2022-11-15T11:37:57;4.72;;;2.55;;
22191;SDS011;11261;52.456;10.850;2022-11-15T11:40:43;7.22;;;3.03;;
22191;SDS011;11261;52.456;10.850;2022-11-15T11:43:22;6.43;;;3.58;;
22191;SDS011;11261;52.456;10.850;2022-11-15T11:46:05;4.72;;;2.97;;
22191;SDS011;11261;52.456;10.850;2022-11-15T11:48:57;4.32;;;2.47;;
22191;SDS011;11261;52.456;10.850;2022-11-15T11:51:32;4.70;;;3.63;;
22191;SDS011;11261;52.456;10.850;2022-11-15T11:54:03;3.97;;;2.63;;
22191;SDS011;11261;52.456;10.850;2022-11-15T11:56:38;5.50;;;3.08;;
22191;SDS011;11261;52.456;10.850;2022-11-15T11:59:10;4.97;;;2.78;;
22191;SDS011;11261;52.456;10.850;2022-11-15T12:01:51;3.92;;;2.65;;
22191;SDS011;11261;52.456;10.850;2022-11-15T12:04:20;5.72;;;3.00;;
22191;SDS011;11261;52.456;10.850;2022-11-15T12:06:56;3.72;;;2.72;;
22191;SDS011;11261;52.456;10.850;2022-11-15T12:09:29;4.32;;;2.95;;
22191;SDS011;11261;52.456;10.850;2022-11-15T12:12:08;3.00;;;2.50;;
22191;SDS011;11261;52.456;10.850;2022-11-15T12:14:42;4.80;;;3.33;;
22191;SDS011;11261;52.456;10.850;2022-11-15T12:17:14;6.55;;;3.63;;
22191;SDS011;11261;52.456;10.850;2022-11-15T12:19:46;4.75;;;3.03;;
22191;SDS011;11261;52.456;10.850;2022-11-15T12:22:16;5.47;;;3.10;;
22191;SDS011;11261;52.456;10.850;2022-11-15T12:24:50;4.93;;;3.10;;
22191;SDS011;11261;52.456;10.850;2022-11-15T12:27:25;6.15;;;3.38;;
22191;SDS011;11261;52.456;10.850;2022-11-15T12:30:02;5.30;;;2.75;;
22191;SDS011;11261;52.456;10.850;2022-11-15T12:32:37;3.45;;;2.53;;
22191;SDS011;11261;52.456;10.850;2022-11-15T12:35:20;7.68;;;3.25;;
22191;SDS011;11261;52.456;10.850;2022-11-15T12:37:52;4.18;;;3.00;;
22191;SDS011;11261;52.456;10.850;2022-11-15T12:40:25;6.03;;;3.47;;
22191;SDS011;11261;52.456;10.850;2022-11-15T12:42:58;6.57;;;3.53;;
22191;SDS011;11261;52.456;10.850;2022-11-15T12:45:29;6.45;;;3.33;;
22191;SDS011;11261;52.456;10.850;2022-11-15T12:51:06;5.55;;;3.85;;
22191;SDS011;11261;52.456;10.850;2022-11-15T12:53:34;9.85;;;5.10;;
22191;SDS011;11261;52.456;10.850;2022-11-15T12:56:08;8.55;;;4.70;;
22191;SDS011;11261;52.456;10.850;2022-11-15T12:58:46;4.28;;;3.58;;
22191;SDS011;11261;52.456;10.850;2022-11-15T13:04:22;7.38;;;3.25;;
22191;SDS011;11261;52.456;10.850;2022-11-15T13:06:54;5.60;;;3.42;;
22191;SDS011;11261;52.456;10.850;2022-11-15T13:12:53;5.03;;;3.63;;
22191;SDS011;11261;52.456;10.850;2022-11-15T13:15:37;5.97;;;4.03;;
22191;SDS011;11261;52.456;10.850;2022-11-15T13:20:57;5.90;;;3.38;;
22191;SDS011;11261;52.456;10.850;2022-11-15T13:23:29;5.32;;;3.13;;
22191;SDS011;11261;52.456;10.850;2022-11-15T13:26:12;4.85;;;3.47;;
22191;SDS011;11261;52.456;10.850;2022-11-15T13:28:43;4.68;;;2.88;;
22191;SDS011;11261;52.456;10.850;2022-11-15T13:34:14;4.95;;;3.38;;
22191;SDS011;11261;52.456;10.850;2022-11-15T13:37:11;5.47;;;3.17;;
22191;SDS011;11261;52.456;10.850;2022-11-15T13:39:57;4.40;;;3.13;;
22191;SDS011;11261;52.456;10.850;2022-11-15T13:42:43;4.30;;;2.88;;
22191;SDS011;11261;52.456;10.850;2022-11-15T13:45:12;5.38;;;3.17;;
22191;SDS011;11261;52.456;10.850;2022-11-15T13:47:42;5.88;;;3.55;;
22191;SDS011;11261;52.456;10.850;2022-11-15T13:50:11;4.53;;;3.10;;
22191;SDS011;11261;52.456;10.850;2022-11-15T13:52:40;4.20;;;3.35;;
22191;SDS011;11261;52.456;10.850;2022-11-15T13:55:14;4.95;;;3.17;;
22191;SDS011;11261;52.456;10.850;2022-11-15T13:57:45;4.20;;;3.00;;
22191;SDS011;11261;52.456;10.850;2022-11-15T14:00:26;5.90;;;3.30;;
22191;SDS011;11261;52.456;10.850;2022-11-15T14:02:57;3.88;;;2.80;;
22191;SDS011;11261;52.456;10.850;2022-11-15T14:05:34;5.35;;;3.55;;
22191;SDS011;11261;52.456;10.850;2022-11-15T14:08:03;6.93;;;3.30;;
22191;SDS011;11261;52.456;10.850;2022-11-15T14:10:42;6.90;;;3.30;;
22191;SDS011;11261;52.456;10.850;2022-11-15T14:13:11;5.53;;;3.70;;
22191;SDS011;11261;52.456;10.850;2022-11-15T14:15:54;6.15;;;3.38;;
22191;SDS011;11261;52.456;10.850;2022-11-15T14:18:41;5.55;;;3.45;;
22191;SDS011;11261;52.456;10.850;2022-11-15T14:21:12;5.93;;;3.47;;
22191;SDS011;11261;52.456;10.850;2022-11-15T14:23:40;4.55;;;3.33;;
22191;SDS011;11261;52.456;10.850;2022-11-15T14:26:25;5.75;;;3.45;;
22191;SDS011;11261;52.456;10.850;2022-11-15T14:28:55;7.10;;;3.33;;
22191;SDS011;11261;52.456;10.850;2022-11-15T14:31:23;5.72;;;3.40;;
22191;SDS011;11261;52.456;10.850;2022-11-15T14:33:51;6.60;;;3.10;;
22191;SDS011;11261;52.456;10.850;2022-11-15T14:36:20;4.93;;;3.05;;
22191;SDS011;11261;52.456;10.850;2022-11-15T14:38:49;5.85;;;3.38;;
22191;SDS011;11261;52.456;10.850;2022-11-15T14:41:20;6.35;;;3.40;;
22191;SDS011;11261;52.456;10.850;2022-11-15T14:43:52;5.97;;;3.13;;
22191;SDS011;11261;52.456;10.850;2022-11-15T14:46:21;6.18;;;3.55;;
22191;SDS011;11261;52.456;10.850;2022-11-15T14:48:49;8.43;;;3.65;;
22191;SDS011;11261;52.456;10.850;2022-11-15T14:51:17;7.03;;;3.83;;
22191;SDS011;11261;52.456;10.850;2022-11-15T14:53:46;5.38;;;3.72;;
22191;SDS011;11261;52.456;10.850;2022-11-15T14:56:14;8.27;;;5.20;;
22191;SDS011;11261;52.456;10.850;2022-11-15T14:58:44;7.25;;;4.03;;
22191;SDS011;11261;52.456;10.850;2022-11-15T15:01:13;9.27;;;4.70;;
22191;SDS011;11261;52.456;10.850;2022-11-15T15:03:45;10.75;;;4.70;;
22191;SDS011;11261;52.456;10.850;2022-11-15T15:06:13;9.32;;;4.57;;
22191;SDS011;11261;52.456;10.850;2022-11-15T15:08:43;9.13;;;4.65;;
22191;SDS011;11261;52.456;10.850;2022-11-15T15:11:13;7.55;;;5.05;;
22191;SDS011;11261;52.456;10.850;2022-11-15T15:13:44;9.30;;;5.20;;
22191;SDS011;11261;52.456;10.850;2022-11-15T15:16:12;7.93;;;5.00;;
22191;SDS011;11261;52.456;10.850;2022-11-15T15:18:40;7.82;;;4.90;;